Csl Argosy — C6UZ9 — position and weather

sailwx.info

Track history (hours):
 
Tides and Currents Weather Stations Pressure Air Temp Water Temp Dewpoint Dewpoint Depression Visibility Wind Speed Wind Dir Waves Ship Positions

Csl Argosy

Last reported at 2016-Nov-19 11:33 UTC. Time now 2016-Dec-05 16:41 UTC.
Position N 27°36' W 082°54'.
Warning: this ship's position is 16 days out of date.

Length 244 m; draft 8.2 m.

Type: Cargo ship. MMSI: 308299000.

Date/timePositionNaut miles runAvg speedWind from/ knotsBaromVisibWave heightAir tempDewpointWater temp
2016-Nov-19 11:33N 27°36' W 082°54'18 8.7
2016-Nov-19 09:32N 27°38' W 082°34'0 0.0
2016-Nov-19 07:32N 27°38' W 082°34'0 0.0
2016-Nov-19 05:32N 27°38' W 082°34'0 0.0
2016-Nov-19 04:32N 27°38' W 082°34'0 0.0
2016-Nov-19 03:32N 27°38' W 082°34'0 0.0
2016-Nov-19 02:32N 27°38' W 082°34'0 0.0
2016-Nov-19 01:32N 27°38' W 082°34'0 0.0
2016-Nov-19 00:32N 27°38' W 082°34'0 0.0
2016-Nov-18 23:32N 27°38' W 082°34'0 0.0
2016-Nov-18 20:32N 27°38' W 082°34'0 0.0
2016-Nov-18 18:32N 27°38' W 082°34'0 0.0
2016-Nov-18 17:29N 27°38' W 082°34'0 0.0
2016-Nov-18 14:32N 27°38' W 082°34'0 0.0
2016-Nov-18 12:32N 27°38' W 082°34'0 0.0
2016-Nov-18 11:32N 27°38' W 082°34'0 0.0
2016-Nov-18 09:32N 27°38' W 082°34'0 0.0
2016-Nov-18 07:32N 27°38' W 082°34'0 0.0
2016-Nov-18 05:32N 27°38' W 082°34'0 0.0
2016-Nov-18 04:32N 27°38' W 082°34'0 0.0
2016-Nov-18 01:32N 27°38' W 082°34'0 0.1
2016-Nov-18 00:34N 27°38' W 082°34'5 4.7
2016-Nov-17 23:33N 27°37' W 082°39'  
2016-Nov-15 10:32N 25°34' W 079°33'35 8.2
2016-Nov-15 06:17N 26°08' W 079°26'4 8.3
2016-Nov-15 05:52N 26°11' W 079°25'  
Track history (hours):
 
Tides and Currents Weather Stations Pressure Air Temp Water Temp Dewpoint Dewpoint Depression Visibility Wind Speed Wind Dir Waves Ship Positions

Csl Argosy

Last reported at 2016-Nov-19 11:33 UTC. Time now 2016-Dec-05 16:41 UTC.
Position N 27°36' W 082°54'.
Warning: this ship's position is 16 days out of date.

Length 244 m; draft 8.2 m.

Type: Cargo ship. MMSI: 308299000.

Date/timePositionNaut miles runAvg speedWind from/ knotsBaromVisibWave heightAir tempDewpointWater temp
2016-Nov-19 11:33N 27°36' W 082°54'18 8.7
2016-Nov-19 09:32N 27°38' W 082°34'0 0.0
2016-Nov-19 07:32N 27°38' W 082°34'0 0.0
2016-Nov-19 05:32N 27°38' W 082°34'0 0.0
2016-Nov-19 04:32N 27°38' W 082°34'0 0.0
2016-Nov-19 03:32N 27°38' W 082°34'0 0.0
2016-Nov-19 02:32N 27°38' W 082°34'0 0.0
2016-Nov-19 01:32N 27°38' W 082°34'0 0.0
2016-Nov-19 00:32N 27°38' W 082°34'0 0.0
2016-Nov-18 23:32N 27°38' W 082°34'0 0.0
2016-Nov-18 20:32N 27°38' W 082°34'0 0.0
2016-Nov-18 18:32N 27°38' W 082°34'0 0.0
2016-Nov-18 17:29N 27°38' W 082°34'0 0.0
2016-Nov-18 14:32N 27°38' W 082°34'0 0.0
2016-Nov-18 12:32N 27°38' W 082°34'0 0.0
2016-Nov-18 11:32N 27°38' W 082°34'0 0.0
2016-Nov-18 09:32N 27°38' W 082°34'0 0.0
2016-Nov-18 07:32N 27°38' W 082°34'0 0.0
2016-Nov-18 05:32N 27°38' W 082°34'0 0.0
2016-Nov-18 04:32N 27°38' W 082°34'0 0.0
2016-Nov-18 01:32N 27°38' W 082°34'0 0.1
2016-Nov-18 00:34N 27°38' W 082°34'5 4.7
2016-Nov-17 23:33N 27°37' W 082°39'  
2016-Nov-15 10:32N 25°34' W 079°33'35 8.2
2016-Nov-15 06:17N 26°08' W 079°26'4 8.3
2016-Nov-15 05:52N 26°11' W 079°25'  

Dump ship's entire track history